createdAt,value
2023-04-01T00:02:27.908Z,20.43
2023-04-01T00:05:28.905Z,20.51
2023-04-01T00:08:29.852Z,20.30
2023-04-01T00:11:31.208Z,20.45
2023-04-01T00:14:31.834Z,20.42
2023-04-01T00:17:32.913Z,20.41
2023-04-01T00:20:33.859Z,20.53
2023-04-01T00:23:34.886Z,20.28
2023-04-01T00:26:35.902Z,20.10
2023-04-01T00:29:37.895Z,20.32
2023-04-01T00:32:38.934Z,20.17
2023-04-01T00:35:39.961Z,20.24
2023-04-01T00:38:40.858Z,20.28
2023-04-01T00:41:41.920Z,20.55
2023-04-01T00:44:46.896Z,20.34
2023-04-01T00:47:47.919Z,20.01
2023-04-01T00:50:48.907Z,20.29
2023-04-01T00:53:52.901Z,20.35
2023-04-01T00:56:57.963Z,20.22
2023-04-01T00:59:59.888Z,20.44
2023-04-01T01:03:00.900Z,20.37
2023-04-01T01:06:04.889Z,20.55
2023-04-01T01:09:24.835Z,19.99
2023-04-01T01:12:28.181Z,20.46
2023-04-01T01:15:28.840Z,20.23
2023-04-01T01:18:47.892Z,20.60
2023-04-01T01:21:57.826Z,20.17
2023-04-01T01:25:15.891Z,20.42
2023-04-01T01:28:29.851Z,20.39
2023-04-01T01:31:44.904Z,20.34
2023-04-01T01:35:03.836Z,20.48
2023-04-01T01:38:07.909Z,20.17
2023-04-01T01:41:11.835Z,20.12
2023-04-01T01:44:13.897Z,20.65
2023-04-01T01:47:14.824Z,20.34
2023-04-01T01:50:15.944Z,20.12
2023-04-01T01:53:20.858Z,20.68
2023-04-01T01:56:21.895Z,21.00
2023-04-01T01:59:18.975Z,20.47
2023-04-01T02:02:15.878Z,20.50
2023-04-01T02:05:18.880Z,20.62
2023-04-01T02:08:26.863Z,20.63
2023-04-01T02:11:29.857Z,20.22
2023-04-01T02:14:37.067Z,20.65
2023-04-01T02:17:39.860Z,19.88
2023-04-01T02:20:41.862Z,20.57
2023-04-01T02:23:42.843Z,20.29
2023-04-01T02:26:43.905Z,20.13
2023-04-01T02:29:44.824Z,19.91
2023-04-01T02:32:46.908Z,20.04
2023-04-01T02:35:50.840Z,20.90
2023-04-01T02:38:51.858Z,20.35
2023-04-01T02:41:55.846Z,20.75
2023-04-01T02:44:56.875Z,20.16
2023-04-01T02:47:57.887Z,20.55
2023-04-01T02:50:58.890Z,20.45
2023-04-01T02:53:59.826Z,20.30
2023-04-01T02:57:00.896Z,20.06
2023-04-01T02:59:54.918Z,20.27
2023-04-01T03:02:48.952Z,20.49
2023-04-01T03:05:49.829Z,20.32
2023-04-01T03:08:50.883Z,19.98
2023-04-01T03:11:51.822Z,19.98
2023-04-01T03:14:53.084Z,20.18
2023-04-01T03:17:54.866Z,20.29
2023-04-01T03:20:55.876Z,20.37
2023-04-01T03:23:56.843Z,20.32
2023-04-01T03:26:57.866Z,20.41
2023-04-01T03:29:58.870Z,20.65
2023-04-01T03:33:04.896Z,19.89
2023-04-01T03:36:05.845Z,20.29
2023-04-01T03:39:06.846Z,20.67
2023-04-01T03:42:08.834Z,20.71
2023-04-01T03:45:09.877Z,20.76
2023-04-01T03:48:10.853Z,20.66
2023-04-01T03:51:11.854Z,20.40
2023-04-01T03:54:12.854Z,20.50
2023-04-01T03:57:13.889Z,20.33
2023-04-01T04:00:15.849Z,20.68
2023-04-01T04:03:21.922Z,20.21
2023-04-01T04:06:25.837Z,20.03
2023-04-01T04:09:26.863Z,20.01
2023-04-01T04:12:27.837Z,20.48
2023-04-01T04:15:29.057Z,20.22
2023-04-01T04:18:29.816Z,20.35
2023-04-01T04:21:30.882Z,19.96
2023-04-01T04:24:31.805Z,20.29
2023-04-01T04:27:38.883Z,19.86
2023-04-01T04:30:40.815Z,20.04
2023-04-01T04:33:41.880Z,20.04
2023-04-01T04:36:43.812Z,20.05
2023-04-01T04:39:46.904Z,20.18
2023-04-01T04:42:47.801Z,19.90
2023-04-01T04:45:48.884Z,20.48
2023-04-01T04:48:51.846Z,20.38
2023-04-01T04:51:52.882Z,19.74
2023-04-01T04:54:54.832Z,19.51
2023-04-01T04:57:55.852Z,19.84
2023-04-01T05:00:56.841Z,19.46
2023-04-01T05:03:58.845Z,20.02
2023-04-01T05:06:59.832Z,19.55
2023-04-01T05:10:01.840Z,20.10
2023-04-01T05:13:02.841Z,20.20
2023-04-01T05:16:04.098Z,20.13
2023-04-01T05:19:04.819Z,19.61
2023-04-01T05:22:05.850Z,19.47
2023-04-01T05:25:06.837Z,19.99
2023-04-01T05:28:07.864Z,19.91
2023-04-01T05:31:09.838Z,19.84
2023-04-01T05:34:12.864Z,19.62
2023-04-01T05:37:14.821Z,19.75
2023-04-01T05:40:15.872Z,19.79
2023-04-01T05:43:16.829Z,19.62
2023-04-01T05:46:18.901Z,19.39
2023-04-01T05:49:45.791Z,19.98
2023-04-01T05:52:46.875Z,19.86
2023-04-01T05:55:48.793Z,19.68
2023-04-01T05:58:52.866Z,19.64
2023-04-01T06:01:46.919Z,19.75
2023-04-01T06:04:51.995Z,19.71
2023-04-01T06:07:52.794Z,20.48
2023-04-01T06:10:56.874Z,20.01
2023-04-01T06:14:07.812Z,20.17
2023-04-01T06:17:23.089Z,19.62
2023-04-01T06:20:31.786Z,20.18
2023-04-01T06:23:53.865Z,20.06
2023-04-01T06:27:06.802Z,19.66
2023-04-01T06:30:20.859Z,19.23
2023-04-01T06:33:39.796Z,19.76
2023-04-01T06:36:43.875Z,19.74
2023-04-01T06:40:16.895Z,20.18
2023-04-01T06:43:26.844Z,19.68
2023-04-01T06:47:03.791Z,20.03
2023-04-01T06:50:22.871Z,19.80
2023-04-01T06:53:41.791Z,19.33
2023-04-01T06:57:04.856Z,19.60
2023-04-01T07:00:05.803Z,19.38
2023-04-01T07:03:40.846Z,19.79
2023-04-01T07:06:41.807Z,19.30
2023-04-01T07:09:45.866Z,19.63
2023-04-01T07:13:14.803Z,19.65
2023-04-01T07:16:30.884Z,19.66
2023-04-01T07:19:31.804Z,19.42
2023-04-01T07:22:35.031Z,19.54
2023-04-01T07:25:53.776Z,20.10
2023-04-01T07:29:16.846Z,19.75
2023-04-01T07:32:32.852Z,20.56
2023-04-01T07:35:46.847Z,20.70
2023-04-01T07:38:47.862Z,21.08
2023-04-01T07:42:14.835Z,21.23
2023-04-01T07:45:33.951Z,21.31
2023-04-01T07:48:44.890Z,20.54
2023-04-01T07:51:51.770Z,21.06
2023-04-01T07:55:07.848Z,20.89
2023-04-01T07:58:21.791Z,20.33
2023-04-01T08:01:31.882Z,20.05
2023-04-01T08:04:35.814Z,20.44
2023-04-01T08:07:37.845Z,20.65
2023-04-01T08:11:00.776Z,21.06
2023-04-01T08:14:28.845Z,21.57
2023-04-01T08:17:51.820Z,21.88
2023-04-01T08:21:01.837Z,20.65
2023-04-01T08:24:03.779Z,20.23
2023-04-01T08:27:08.059Z,19.75
2023-04-01T08:30:17.770Z,20.15
2023-04-01T08:33:30.857Z,20.39
2023-04-01T08:36:39.769Z,20.15
2023-04-01T08:39:49.831Z,20.33
2023-04-01T08:42:50.766Z,20.28
2023-04-01T08:46:10.839Z,19.76
2023-04-01T08:49:17.782Z,20.05
2023-04-01T08:52:27.834Z,19.98
2023-04-01T08:55:32.094Z,19.95
2023-04-01T08:58:44.791Z,19.84
2023-04-01T09:01:56.860Z,19.86
2023-04-01T09:05:27.830Z,19.42
2023-04-01T09:08:37.794Z,19.70
2023-04-01T09:11:56.913Z,19.54
2023-04-01T09:15:06.787Z,19.70
2023-04-01T09:18:25.822Z,19.61
2023-04-01T09:21:49.826Z,19.51
2023-04-01T09:24:59.820Z,19.24
2023-04-01T09:28:18.780Z,19.42
2023-04-01T09:31:48.992Z,19.46
2023-04-01T09:35:34.970Z,19.48
2023-04-01T09:38:36.835Z,19.30
2023-04-01T09:41:46.796Z,19.32
2023-04-01T09:45:11.843Z,19.71
2023-04-01T09:48:30.787Z,19.98
2023-04-01T09:51:37.832Z,19.69
2023-04-01T09:54:50.845Z,19.44
2023-04-01T09:58:07.837Z,20.02
2023-04-01T10:01:53.909Z,21.01
2023-04-01T10:05:13.857Z,21.21
2023-04-01T10:08:26.878Z,20.61
2023-04-01T10:11:23.840Z,20.84
2023-04-01T10:14:33.779Z,21.59
2023-04-01T10:18:03.828Z,20.81
2023-04-01T10:21:14.767Z,21.41
2023-04-01T10:24:33.810Z,20.88
2023-04-01T10:27:45.759Z,20.98
2023-04-01T10:31:33.066Z,20.80
2023-04-01T10:34:33.777Z,21.36
2023-04-01T10:37:46.824Z,21.70
2023-04-01T10:40:52.761Z,21.69
2023-04-01T10:44:21.811Z,21.36
2023-04-01T10:47:24.785Z,21.78
2023-04-01T10:50:43.816Z,21.31
2023-04-01T10:54:01.765Z,21.32
2023-04-01T10:57:05.904Z,21.64
2023-04-01T11:00:44.755Z,21.33
2023-04-01T11:04:32.821Z,21.70
2023-04-01T11:08:09.798Z,20.92
2023-04-01T11:11:11.819Z,20.93
2023-04-01T11:14:31.776Z,21.62
2023-04-01T11:17:32.843Z,20.49
2023-04-01T11:20:47.751Z,21.75
2023-04-01T11:24:06.167Z,20.79
2023-04-01T11:27:30.757Z,21.60
2023-04-01T11:30:31.790Z,20.58
2023-04-01T11:33:38.750Z,19.97
2023-04-01T11:36:48.065Z,20.51
2023-04-01T11:40:04.790Z,20.22
2023-04-01T11:43:49.794Z,20.10
2023-04-01T11:47:28.803Z,21.00
2023-04-01T11:50:42.818Z,20.37
2023-04-01T11:53:43.741Z,20.86
2023-04-01T11:56:44.950Z,21.08
2023-04-01T12:00:03.831Z,21.42
2023-04-01T12:03:14.842Z,21.11
2023-04-01T12:06:33.753Z,21.22
2023-04-01T12:09:49.789Z,20.51
2023-04-01T12:13:01.573Z,20.94
2023-04-01T12:16:10.829Z,21.37
2023-04-01T12:19:14.755Z,21.02
2023-04-01T12:22:17.815Z,21.62
2023-04-01T12:25:41.739Z,21.63
2023-04-01T12:28:48.796Z,21.37
2023-04-01T12:32:14.761Z,21.48
2023-04-01T12:35:21.843Z,21.13
2023-04-01T12:38:33.746Z,21.28
2023-04-01T12:41:37.786Z,21.11
2023-04-01T12:44:38.739Z,20.94
2023-04-01T12:47:57.826Z,20.79
2023-04-01T12:51:16.752Z,21.33
2023-04-01T12:54:32.829Z,20.96
2023-04-01T12:57:33.873Z,21.58
2023-04-01T13:00:49.813Z,21.08
2023-04-01T13:04:08.775Z,20.75
2023-04-01T13:07:27.782Z,21.82
2023-04-01T13:10:40.774Z,22.18
2023-04-01T13:14:04.781Z,21.37
2023-04-01T13:17:05.738Z,21.24
2023-04-01T13:20:06.784Z,21.44
2023-04-01T13:23:13.738Z,21.67
2023-04-01T13:26:32.806Z,21.84
2023-04-01T13:29:59.748Z,21.25
2023-04-01T13:33:09.838Z,21.24
2023-04-01T13:36:19.790Z,21.99
2023-04-01T13:39:35.793Z,21.54
2023-04-01T13:42:38.716Z,21.32
2023-04-01T13:45:42.968Z,22.15
2023-04-01T13:48:43.723Z,21.54
2023-04-01T13:52:13.797Z,22.27
2023-04-01T13:55:43.726Z,22.50
2023-04-01T13:58:53.813Z,22.95
2023-04-01T14:02:03.735Z,21.38
2023-04-01T14:05:04.779Z,21.95
2023-04-01T14:08:23.722Z,23.01
2023-04-01T14:11:42.786Z,22.60
2023-04-01T14:14:46.068Z,22.46
2023-04-01T14:17:48.805Z,21.13
2023-04-01T14:20:55.729Z,22.07
2023-04-01T14:23:56.776Z,21.74
2023-04-01T14:27:09.736Z,22.25
2023-04-01T14:30:30.756Z,21.41
2023-04-01T14:33:49.718Z,21.56
2023-04-01T14:37:02.754Z,22.66
2023-04-01T14:40:21.715Z,22.76
2023-04-01T14:43:52.763Z,22.02
2023-04-01T14:46:55.732Z,21.52
2023-04-01T14:49:57.938Z,21.56
2023-04-01T14:53:09.773Z,22.33
2023-04-01T14:56:11.756Z,21.65
2023-04-01T14:59:12.753Z,22.71
2023-04-01T15:02:17.763Z,22.25
2023-04-01T15:05:38.746Z,21.48
2023-04-01T15:08:51.798Z,22.56
2023-04-01T15:11:52.736Z,23.19
2023-04-01T15:15:08.763Z,23.43
2023-04-01T15:18:09.768Z,23.63
2023-04-01T15:21:16.765Z,21.75
2023-04-01T15:24:23.719Z,23.00
2023-04-01T15:27:49.781Z,23.39
2023-04-01T15:30:58.746Z,22.63
2023-04-01T15:34:26.758Z,22.87
2023-04-01T15:37:32.750Z,22.87
2023-04-01T15:40:36.815Z,22.18
2023-04-01T15:43:55.764Z,22.17
2023-04-01T15:47:01.767Z,23.06
2023-04-01T15:50:07.746Z,22.38
2023-04-01T15:53:12.052Z,22.03
2023-04-01T15:56:30.754Z,22.40
2023-04-01T15:59:46.765Z,22.29
2023-04-01T16:03:02.823Z,22.66
2023-04-01T16:06:21.749Z,23.52
2023-04-01T16:09:31.723Z,22.13
2023-04-01T16:12:33.750Z,21.90
2023-04-01T16:15:43.753Z,22.58
2023-04-01T16:18:49.751Z,23.05
2023-04-01T16:22:03.731Z,21.92
2023-04-01T16:25:24.753Z,21.66
2023-04-01T16:28:32.741Z,22.12
2023-04-01T16:31:46.765Z,21.59
2023-04-01T16:34:53.712Z,20.99
2023-04-01T16:37:57.755Z,22.05
2023-04-01T16:41:18.716Z,22.47
2023-04-01T16:44:32.751Z,21.84
2023-04-01T16:47:53.819Z,22.30
2023-04-01T16:50:57.757Z,22.27
2023-04-01T16:54:01.699Z,22.05
2023-04-01T16:57:05.012Z,22.20
2023-04-01T17:00:29.704Z,22.27
2023-04-01T17:03:32.780Z,22.79
2023-04-01T17:06:33.712Z,22.47
2023-04-01T17:10:03.752Z,22.09
2023-04-01T17:13:27.696Z,21.99
2023-04-01T17:16:36.763Z,22.37
2023-04-01T17:19:55.715Z,22.62
2023-04-01T17:23:09.760Z,21.94
2023-04-01T17:26:18.691Z,23.16
2023-04-01T17:29:43.759Z,22.22
2023-04-01T17:33:10.781Z,23.23
2023-04-01T17:36:18.741Z,22.90
2023-04-01T17:39:34.690Z,22.84
2023-04-01T17:42:35.761Z,21.99
2023-04-01T17:45:55.698Z,21.65
2023-04-01T17:49:00.742Z,23.05
2023-04-01T17:52:15.692Z,22.24
2023-04-01T17:55:25.746Z,22.61
2023-04-01T17:58:44.685Z,22.12
2023-04-01T18:01:45.808Z,22.76
2023-04-01T18:05:04.720Z,22.49
2023-04-01T18:08:05.751Z,23.01
2023-04-01T18:11:06.686Z,21.49
2023-04-01T18:14:25.755Z,21.65
2023-04-01T18:17:29.478Z,22.18
2023-04-01T18:20:38.774Z,21.85
2023-04-01T18:24:01.529Z,20.78
2023-04-01T18:27:26.745Z,21.49
2023-04-01T18:30:40.691Z,22.24
2023-04-01T18:33:56.735Z,22.04
2023-04-01T18:37:40.400Z,22.33
2023-04-01T18:40:56.735Z,23.05
2023-04-01T18:44:11.687Z,21.84
2023-04-01T18:47:12.755Z,21.95
2023-04-01T18:50:22.698Z,23.34
2023-04-01T18:53:28.744Z,22.50
2023-04-01T18:56:44.701Z,22.22
2023-04-01T18:59:45.825Z,22.76
2023-04-01T19:02:50.762Z,22.35
2023-04-01T19:05:53.902Z,21.36
2023-04-01T19:08:54.735Z,22.35
2023-04-01T19:12:13.759Z,22.73
2023-04-01T19:15:14.718Z,21.36
2023-04-01T19:18:28.738Z,22.05
2023-04-01T19:21:46.696Z,21.96
2023-04-01T19:25:01.759Z,21.73
2023-04-01T19:28:06.693Z,22.39
2023-04-01T19:31:26.789Z,21.39
2023-04-01T19:34:30.683Z,21.29
2023-04-01T19:37:41.756Z,20.54
2023-04-01T19:40:48.696Z,21.61
2023-04-01T19:43:57.782Z,21.66
2023-04-01T19:47:04.690Z,22.43
2023-04-01T19:50:18.741Z,21.86
2023-04-01T19:53:27.707Z,21.12
2023-04-01T19:56:33.752Z,20.80
2023-04-01T19:59:38.687Z,21.04
2023-04-01T20:02:54.242Z,20.89
2023-04-01T20:06:12.698Z,21.15
2023-04-01T20:09:25.774Z,20.73
2023-04-01T20:12:32.684Z,20.61
2023-04-01T20:15:37.756Z,21.21
2023-04-01T20:18:50.711Z,20.23
2023-04-01T20:21:56.697Z,21.48
2023-04-01T20:25:00.722Z,21.07
2023-04-01T20:28:24.732Z,20.96
2023-04-01T20:31:38.715Z,21.04
2023-04-01T20:34:58.719Z,20.91
2023-04-01T20:38:03.683Z,20.69
2023-04-01T20:41:05.706Z,20.72
2023-04-01T20:44:18.688Z,20.61
2023-04-01T20:47:19.718Z,20.25
2023-04-01T20:50:35.690Z,20.96
2023-04-01T20:53:44.739Z,20.41
2023-04-01T20:56:49.737Z,20.19
2023-04-01T20:59:56.756Z,20.64
2023-04-01T21:03:00.720Z,20.45
2023-04-01T21:06:10.883Z,20.34
2023-04-01T21:09:20.683Z,20.79
2023-04-01T21:12:43.788Z,20.53
2023-04-01T21:15:49.816Z,20.72
2023-04-01T21:18:50.749Z,20.68
2023-04-01T21:21:57.685Z,20.36
2023-04-01T21:25:36.905Z,20.47
2023-04-01T21:28:46.711Z,20.32
2023-04-01T21:32:05.728Z,20.47
2023-04-01T21:35:09.719Z,20.35
2023-04-01T21:38:10.721Z,20.71
2023-04-01T21:41:16.694Z,20.69
2023-04-01T21:44:21.718Z,20.19
2023-04-01T21:47:31.735Z,20.54
2023-04-01T21:50:50.762Z,20.67
2023-04-01T21:54:00.685Z,20.74
2023-04-01T21:57:19.780Z,20.73
2023-04-01T22:00:38.720Z,20.48
2023-04-01T22:03:54.732Z,20.71
2023-04-01T22:07:01.727Z,20.62
2023-04-01T22:10:05.777Z,20.31
2023-04-01T22:13:15.713Z,20.47
2023-04-01T22:16:22.924Z,20.32
2023-04-01T22:19:23.649Z,20.48
2023-04-01T22:22:36.723Z,20.64
2023-04-01T22:30:24.699Z,20.66
2023-04-01T22:33:31.671Z,19.82
2023-04-01T22:36:37.701Z,20.38
2023-04-01T22:39:54.674Z,20.55
2023-04-01T22:42:57.700Z,20.34
2023-04-01T22:46:36.739Z,20.47
2023-04-01T22:49:54.698Z,20.61
2023-04-01T22:52:56.666Z,20.70
2023-04-01T22:55:58.694Z,20.57
2023-04-01T22:59:10.660Z,20.42
2023-04-01T23:02:17.690Z,20.31
2023-04-01T23:05:19.672Z,20.76
2023-04-01T23:08:35.708Z,20.76
2023-04-01T23:12:02.663Z,20.63
2023-04-01T23:15:05.891Z,20.68
2023-04-01T23:18:12.653Z,20.30
2023-04-01T23:21:21.718Z,20.55
2023-04-01T23:24:28.676Z,20.45
2023-04-01T23:27:34.714Z,20.25
2023-04-01T23:31:00.689Z,20.33
2023-04-01T23:34:07.691Z,20.38
2023-04-01T23:37:09.635Z,20.11
2023-04-01T23:40:13.697Z,20.67
2023-04-01T23:43:14.645Z,20.43
2023-04-01T23:46:16.764Z,20.04
2023-04-01T23:49:18.664Z,20.33
2023-04-01T23:52:27.759Z,20.17
2023-04-01T23:55:39.655Z,20.57
2023-04-01T23:58:41.699Z,19.93
